createdAt,value
2019-03-11T00:00:41.162Z,7.00
2019-03-11T00:03:09.710Z,7.00
2019-03-11T00:05:38.287Z,7.10
2019-03-11T00:08:06.832Z,7.00
2019-03-11T00:10:35.401Z,6.90
2019-03-11T00:13:03.950Z,6.90
2019-03-11T00:15:32.585Z,7.00
2019-03-11T00:18:01.116Z,6.90
2019-03-11T00:20:29.635Z,7.00
2019-03-11T00:22:58.177Z,7.00
2019-03-11T00:25:26.733Z,7.00
2019-03-11T00:27:55.272Z,7.00
2019-03-11T00:30:23.833Z,7.00
2019-03-11T00:32:52.377Z,7.00
2019-03-11T00:35:20.852Z,7.00
2019-03-11T00:37:49.586Z,7.00
2019-03-11T00:40:18.205Z,6.90
2019-03-11T00:42:47.010Z,7.00
2019-03-11T00:45:16.106Z,7.00
2019-03-11T00:47:44.650Z,7.10
2019-03-11T00:50:13.649Z,7.00
2019-03-11T00:52:42.420Z,7.00
2019-03-11T00:55:12.264Z,6.90
2019-03-11T00:57:40.742Z,6.80
2019-03-11T01:00:21.349Z,6.70
2019-03-11T01:02:49.857Z,6.70
2019-03-11T01:05:18.357Z,6.60
2019-03-11T01:07:46.897Z,6.60
2019-03-11T01:10:15.460Z,6.60
2019-03-11T01:12:43.989Z,6.60
2019-03-11T01:15:12.616Z,6.70
2019-03-11T01:17:41.521Z,6.60
2019-03-11T01:20:11.565Z,6.70
2019-03-11T01:22:40.142Z,6.70
2019-03-11T01:25:10.317Z,6.60
2019-03-11T01:27:39.715Z,6.50
2019-03-11T01:30:15.985Z,6.50
2019-03-11T01:32:44.549Z,6.40
2019-03-11T01:35:13.269Z,6.50
2019-03-11T01:37:41.888Z,6.30
2019-03-11T01:40:17.649Z,6.20
2019-03-11T01:42:46.331Z,6.10
2019-03-11T01:45:16.429Z,6.00
2019-03-11T01:47:45.041Z,6.00
2019-03-11T01:50:15.662Z,6.00
2019-03-11T01:52:44.202Z,6.00
2019-03-11T01:55:13.696Z,5.90
2019-03-11T01:57:42.148Z,5.90
2019-03-11T02:00:15.938Z,5.80
2019-03-11T02:02:44.476Z,5.70
2019-03-11T02:05:13.149Z,5.70
2019-03-11T02:07:41.690Z,5.70
2019-03-11T02:10:17.709Z,5.70
2019-03-11T02:12:46.405Z,5.60
2019-03-11T02:15:16.176Z,5.60
2019-03-11T02:17:44.811Z,5.50
2019-03-11T02:20:15.110Z,5.50
2019-03-11T02:22:43.737Z,5.50
2019-03-11T02:25:12.501Z,5.50
2019-03-11T02:27:40.980Z,5.60
2019-03-11T02:30:12.352Z,5.50
2019-03-11T02:32:40.971Z,5.60
2019-03-11T02:35:09.875Z,5.70
2019-03-11T02:37:38.711Z,5.70
2019-03-11T02:40:14.636Z,5.80
2019-03-11T02:42:43.211Z,5.80
2019-03-11T02:45:11.847Z,5.70
2019-03-11T02:47:40.391Z,5.80
2019-03-11T02:50:10.302Z,5.80
2019-03-11T02:52:38.835Z,5.70
2019-03-11T02:55:07.917Z,5.80
2019-03-11T02:57:36.576Z,5.80
2019-03-11T03:00:20.776Z,5.80
2019-03-11T03:02:54.150Z,5.70
2019-03-11T03:05:27.274Z,5.70
2019-03-11T03:07:55.834Z,5.70
2019-03-11T03:10:24.299Z,5.70
2019-03-11T03:12:52.881Z,5.60
2019-03-11T03:15:21.362Z,5.70
2019-03-11T03:17:50.005Z,5.70
2019-03-11T03:20:18.544Z,5.80
2019-03-11T03:22:47.111Z,6.00
2019-03-11T03:25:15.820Z,6.00
2019-03-11T03:27:44.446Z,6.00
2019-03-11T03:30:15.680Z,6.10
2019-03-11T03:32:44.248Z,6.10
2019-03-11T03:35:13.174Z,6.10
2019-03-11T03:37:41.749Z,6.20
2019-03-11T03:40:12.402Z,6.10
2019-03-11T03:42:41.004Z,6.20
2019-03-11T03:45:27.778Z,6.20
2019-03-11T03:47:56.526Z,6.30
2019-03-11T03:50:27.209Z,6.10
2019-03-11T03:52:55.851Z,6.20
2019-03-11T03:55:24.446Z,6.30
2019-03-11T03:57:52.926Z,6.40
2019-03-11T04:00:21.398Z,6.40
2019-03-11T04:02:50.007Z,6.50
2019-03-11T04:05:18.562Z,6.50
2019-03-11T04:07:47.135Z,6.40
2019-03-11T04:10:19.904Z,6.30
2019-03-11T04:12:48.599Z,6.30
2019-03-11T04:15:17.437Z,6.30
2019-03-11T04:17:46.229Z,6.30
2019-03-11T04:20:19.970Z,6.30
2019-03-11T04:22:48.587Z,6.50
2019-03-11T04:25:17.266Z,6.30
2019-03-11T04:27:45.893Z,6.40
2019-03-11T04:30:16.596Z,6.50
2019-03-11T04:32:45.352Z,6.30
2019-03-11T04:35:13.857Z,6.30
2019-03-11T04:37:42.407Z,6.20
2019-03-11T04:40:13.008Z,6.20
2019-03-11T04:42:41.611Z,6.20
2019-03-11T04:45:12.313Z,6.20
2019-03-11T04:47:40.852Z,6.20
2019-03-11T04:50:20.303Z,6.20
2019-03-11T04:52:48.921Z,6.30
2019-03-11T04:55:17.929Z,6.10
2019-03-11T04:57:54.391Z,6.10
2019-03-11T05:00:25.506Z,5.90
2019-03-11T05:02:54.049Z,5.90
2019-03-11T05:05:22.620Z,5.70
2019-03-11T05:07:51.158Z,5.50
2019-03-11T05:10:19.713Z,5.40
2019-03-11T05:12:48.256Z,5.30
2019-03-11T05:15:17.053Z,5.30
2019-03-11T05:17:48.213Z,5.10
2019-03-11T05:20:16.719Z,5.20
2019-03-11T05:22:45.257Z,5.10
2019-03-11T05:25:16.777Z,5.20
2019-03-11T05:27:45.752Z,5.20
2019-03-11T05:30:18.232Z,5.20
2019-03-11T05:32:47.014Z,5.30
2019-03-11T05:35:15.738Z,5.30
2019-03-11T05:37:44.356Z,5.40
2019-03-11T05:40:20.381Z,5.30
2019-03-11T05:42:48.978Z,5.20
2019-03-11T05:45:18.453Z,5.20
2019-03-11T05:47:54.860Z,5.30
2019-03-11T05:50:23.528Z,5.40
2019-03-11T05:52:52.037Z,5.50
2019-03-11T05:55:24.316Z,5.60
2019-03-11T05:57:52.947Z,5.60
2019-03-11T06:00:26.394Z,5.60
2019-03-11T06:02:55.025Z,5.50
2019-03-11T06:05:23.681Z,5.70
2019-03-11T06:07:52.218Z,5.60
2019-03-11T06:10:20.777Z,5.60
2019-03-11T06:12:49.387Z,5.70
2019-03-11T06:15:18.341Z,5.50
2019-03-11T06:17:47.020Z,5.60
2019-03-11T06:20:33.194Z,5.50
2019-03-11T06:23:03.368Z,5.50
2019-03-11T06:25:31.926Z,5.40
2019-03-11T06:28:00.466Z,5.60
2019-03-11T06:30:29.203Z,5.70
2019-03-11T06:32:57.668Z,5.70
2019-03-11T06:35:26.159Z,5.70
2019-03-11T06:37:55.549Z,5.80
2019-03-11T06:40:24.071Z,5.90
2019-03-11T06:42:52.625Z,6.00
2019-03-11T06:45:21.181Z,6.00
2019-03-11T06:47:49.646Z,6.10
2019-03-11T06:50:18.205Z,6.10
2019-03-11T06:52:46.683Z,6.10
2019-03-11T06:55:15.312Z,6.20
2019-03-11T06:57:43.873Z,6.10
2019-03-11T07:00:17.509Z,6.10
2019-03-11T07:02:46.189Z,6.20
2019-03-11T07:05:20.099Z,6.10
2019-03-11T07:07:45.245Z,6.10
2019-03-11T07:10:15.333Z,6.20
2019-03-11T07:12:44.142Z,6.20
2019-03-11T07:15:14.240Z,6.10
2019-03-11T07:17:42.846Z,6.00
2019-03-11T07:20:13.445Z,6.10
2019-03-11T07:22:41.914Z,6.30
2019-03-11T07:25:10.641Z,6.30
2019-03-11T07:27:39.441Z,6.20
2019-03-11T07:30:16.005Z,6.10
2019-03-11T07:32:44.532Z,6.10
2019-03-11T07:35:13.164Z,6.20
2019-03-11T07:37:41.637Z,6.00
2019-03-11T07:40:11.937Z,5.80
2019-03-11T07:42:40.397Z,5.70
2019-03-11T07:45:11.022Z,5.90
2019-03-11T07:47:39.559Z,5.80
2019-03-11T07:50:09.559Z,5.90
2019-03-11T07:52:38.112Z,5.90
2019-03-11T07:55:11.697Z,5.80
2019-03-11T07:57:40.236Z,5.70
2019-03-11T08:00:11.208Z,5.60
2019-03-11T08:02:39.745Z,5.60
2019-03-11T08:05:09.947Z,5.60
2019-03-11T08:07:38.496Z,5.50
2019-03-11T08:10:15.707Z,5.50
2019-03-11T08:12:44.446Z,5.60
2019-03-11T08:15:16.555Z,5.20
2019-03-11T08:17:45.233Z,5.10
2019-03-11T08:20:14.949Z,4.90
2019-03-11T08:22:43.787Z,4.80
2019-03-11T08:25:13.414Z,4.70
2019-03-11T08:27:41.958Z,4.50
2019-03-11T08:30:13.334Z,4.20
2019-03-11T08:32:41.872Z,4.30
2019-03-11T08:35:10.561Z,4.30
2019-03-11T08:37:39.108Z,4.50
2019-03-11T08:40:10.986Z,4.50
2019-03-11T08:42:39.536Z,4.60
2019-03-11T08:45:11.152Z,4.70
2019-03-11T08:47:39.715Z,5.00
2019-03-11T08:50:11.380Z,5.10
2019-03-11T08:52:39.882Z,5.30
2019-03-11T08:55:09.261Z,5.60
2019-03-11T08:57:40.096Z,6.00
2019-03-11T09:00:13.633Z,6.00
2019-03-11T09:02:42.283Z,6.10
2019-03-11T09:05:11.973Z,6.20
2019-03-11T09:07:40.527Z,6.20
2019-03-11T09:10:15.951Z,6.40
2019-03-11T09:12:44.523Z,6.70
2019-03-11T09:15:17.041Z,6.90
2019-03-11T09:17:45.712Z,6.80
2019-03-11T09:20:19.697Z,6.50
2019-03-11T09:22:48.378Z,6.30
2019-03-11T09:25:19.093Z,6.30
2019-03-11T09:27:47.594Z,6.10
2019-03-11T09:30:18.459Z,6.20
2019-03-11T09:32:47.021Z,6.30
2019-03-11T09:35:15.570Z,6.50
2019-03-11T09:37:44.668Z,6.50
2019-03-11T09:40:18.825Z,6.50
2019-03-11T09:42:47.464Z,6.60
2019-03-11T09:45:17.142Z,6.90
2019-03-11T09:47:45.715Z,7.20
2019-03-11T09:50:15.430Z,7.50
2019-03-11T09:52:44.140Z,7.50
2019-03-11T09:55:15.487Z,7.50
2019-03-11T09:57:44.136Z,7.10
2019-03-11T10:00:23.777Z,7.00
2019-03-11T10:02:53.474Z,6.90
2019-03-11T10:05:22.625Z,7.10
2019-03-11T10:07:51.285Z,7.20
2019-03-11T10:10:21.254Z,7.20
2019-03-11T10:12:49.737Z,7.20
2019-03-11T10:15:20.514Z,7.30
2019-03-11T10:17:49.209Z,7.00
2019-03-11T10:20:18.781Z,6.90
2019-03-11T10:22:47.598Z,6.90
2019-03-11T10:25:16.996Z,7.00
2019-03-11T10:27:45.701Z,7.00
2019-03-11T10:30:24.190Z,6.80
2019-03-11T10:32:52.745Z,6.60
2019-03-11T10:35:36.878Z,6.70
2019-03-11T10:37:51.866Z,6.90
2019-03-11T10:40:31.328Z,7.00
2019-03-11T10:42:59.877Z,7.30
2019-03-11T10:45:31.802Z,7.40
2019-03-11T10:47:58.687Z,7.40
2019-03-11T10:50:27.296Z,7.30
2019-03-11T10:52:55.927Z,7.20
2019-03-11T10:55:25.195Z,7.40
2019-03-11T10:57:53.677Z,7.40
2019-03-11T11:00:36.277Z,7.40
2019-03-11T11:03:04.899Z,7.20
2019-03-11T11:05:33.445Z,7.00
2019-03-11T11:08:02.001Z,7.20
2019-03-11T11:10:31.370Z,7.50
2019-03-11T11:12:59.938Z,7.50
2019-03-11T11:15:31.905Z,7.30
2019-03-11T11:18:00.398Z,7.40
2019-03-11T11:20:29.001Z,7.70
2019-03-11T11:22:57.752Z,7.60
2019-03-11T11:25:27.518Z,7.50
2019-03-11T11:27:56.075Z,7.00
2019-03-11T11:30:26.643Z,6.90
2019-03-11T11:32:55.441Z,7.20
2019-03-11T11:35:24.144Z,7.10
2019-03-11T11:37:52.773Z,7.30
2019-03-11T11:40:26.573Z,7.40
2019-03-11T11:42:55.440Z,7.50
2019-03-11T11:45:27.933Z,7.80
2019-03-11T11:47:56.489Z,8.20
2019-03-11T11:50:25.593Z,8.30
2019-03-11T11:52:54.317Z,8.20
2019-03-11T11:55:23.486Z,8.40
2019-03-11T11:57:52.209Z,8.50
2019-03-11T12:00:29.870Z,8.60
2019-03-11T12:02:58.399Z,8.40
2019-03-11T12:05:27.060Z,8.10
2019-03-11T12:07:55.622Z,7.70
2019-03-11T12:10:28.148Z,7.40
2019-03-11T12:12:57.112Z,7.10
2019-03-11T12:15:25.745Z,6.90
2019-03-11T12:17:54.394Z,6.80
2019-03-11T12:20:27.886Z,7.00
2019-03-11T12:22:56.639Z,7.70
2019-03-11T12:25:25.193Z,8.30
2019-03-11T12:27:54.741Z,9.20
2019-03-11T12:30:32.159Z,10.40
2019-03-11T12:33:00.807Z,11.30
2019-03-11T12:35:29.482Z,12.20
2019-03-11T12:37:58.618Z,12.80
2019-03-11T12:40:27.225Z,11.60
2019-03-11T12:42:55.798Z,10.80
2019-03-11T12:45:25.286Z,10.40
2019-03-11T12:47:54.399Z,10.60
2019-03-11T12:50:23.968Z,9.70
2019-03-11T12:52:52.606Z,9.30
2019-03-11T12:55:21.898Z,9.30
2019-03-11T12:57:50.773Z,9.80
2019-03-11T13:00:26.147Z,11.00
2019-03-11T13:02:54.753Z,12.30
2019-03-11T13:05:23.475Z,12.90
2019-03-11T13:07:52.021Z,12.50
2019-03-11T13:10:22.600Z,12.20
2019-03-11T13:12:51.404Z,11.90
2019-03-11T13:15:20.236Z,12.10
2019-03-11T13:17:49.119Z,12.60
2019-03-11T13:20:32.727Z,13.10
2019-03-11T13:23:01.430Z,12.90
2019-03-11T13:25:30.075Z,12.60
2019-03-11T13:27:58.616Z,12.60
2019-03-11T13:30:27.433Z,12.40
2019-03-11T13:32:55.983Z,13.00
2019-03-11T13:35:24.901Z,12.80
2019-03-11T13:37:53.634Z,12.20
2019-03-11T13:40:22.375Z,11.60
2019-03-11T13:42:50.917Z,11.20
2019-03-11T13:45:19.872Z,10.20
2019-03-11T13:47:48.486Z,10.00
2019-03-11T13:50:18.582Z,9.60
2019-03-11T13:52:47.318Z,9.40
2019-03-11T13:55:17.413Z,9.50
2019-03-11T13:57:46.011Z,9.50
2019-03-11T14:00:21.536Z,9.50
2019-03-11T14:02:50.081Z,9.20
2019-03-11T14:05:18.749Z,8.80
2019-03-11T14:07:47.353Z,8.80
2019-03-11T14:10:16.481Z,8.90
2019-03-11T14:12:45.185Z,8.90
2019-03-11T14:15:18.624Z,8.50
2019-03-11T14:17:47.164Z,8.00
2019-03-11T14:20:17.013Z,8.00
2019-03-11T14:22:45.802Z,8.10
2019-03-11T14:25:15.106Z,8.40
2019-03-11T14:27:43.825Z,9.20
2019-03-11T14:30:23.313Z,9.90
2019-03-11T14:32:51.792Z,10.10
2019-03-11T14:35:20.357Z,9.80
2019-03-11T14:37:49.221Z,9.40
2019-03-11T14:40:19.010Z,9.40
2019-03-11T14:42:47.805Z,9.40
2019-03-11T14:45:18.800Z,9.10
2019-03-11T14:47:47.406Z,9.20
2019-03-11T14:50:17.100Z,9.00
2019-03-11T14:52:45.704Z,8.70
2019-03-11T14:55:14.804Z,8.80
2019-03-11T14:57:43.557Z,9.10
2019-03-11T15:00:19.031Z,9.30
2019-03-11T15:02:48.541Z,10.10
2019-03-11T15:05:18.296Z,10.20
2019-03-11T15:07:47.447Z,10.50
2019-03-11T15:10:20.062Z,10.50
2019-03-11T15:12:48.967Z,10.00
2019-03-11T15:15:24.814Z,9.50
2019-03-11T15:17:53.433Z,9.70
2019-03-11T15:20:22.459Z,9.60
2019-03-11T15:22:51.010Z,9.60
2019-03-11T15:25:20.156Z,9.60
2019-03-11T15:27:49.073Z,9.20
2019-03-11T15:30:19.857Z,8.90
2019-03-11T15:32:48.409Z,8.90
2019-03-11T15:35:17.101Z,9.50
2019-03-11T15:37:45.650Z,9.90
2019-03-11T15:40:18.026Z,10.30
2019-03-11T15:42:46.574Z,10.80
2019-03-11T15:45:16.244Z,11.10
2019-03-11T15:47:44.971Z,10.50
2019-03-11T15:50:25.761Z,9.50
2019-03-11T15:52:54.289Z,8.80
2019-03-11T15:55:22.830Z,8.20
2019-03-11T15:57:51.469Z,8.00
2019-03-11T16:00:21.458Z,7.80
2019-03-11T16:02:50.093Z,7.50
2019-03-11T16:05:20.541Z,7.40
2019-03-11T16:07:50.062Z,7.20
2019-03-11T16:10:18.950Z,7.10
2019-03-11T16:12:47.863Z,6.60
2019-03-11T16:15:35.837Z,6.50
2019-03-11T16:18:04.528Z,6.10
2019-03-11T16:20:33.061Z,5.90
2019-03-11T16:23:01.629Z,6.30
2019-03-11T16:25:30.170Z,7.10
2019-03-11T16:27:58.656Z,8.30
2019-03-11T16:30:27.948Z,9.70
2019-03-11T16:32:59.813Z,11.00
2019-03-11T16:35:28.310Z,11.30
2019-03-11T16:37:56.886Z,10.90
2019-03-11T16:40:25.429Z,11.00
2019-03-11T16:42:54.004Z,10.90
2019-03-11T16:45:22.871Z,10.90
2019-03-11T16:47:51.506Z,10.90
2019-03-11T16:50:22.661Z,10.70
2019-03-11T16:52:51.301Z,10.10
2019-03-11T16:55:25.599Z,9.40
2019-03-11T16:57:54.264Z,8.90
2019-03-11T17:00:30.965Z,8.40
2019-03-11T17:02:59.591Z,8.00
2019-03-11T17:05:28.304Z,7.70
2019-03-11T17:07:57.314Z,7.50
2019-03-11T17:10:25.930Z,7.30
2019-03-11T17:12:54.751Z,6.90
2019-03-11T17:15:23.304Z,6.60
2019-03-11T17:17:51.880Z,6.50
2019-03-11T17:20:39.757Z,6.50
2019-03-11T17:23:08.339Z,6.60
2019-03-11T17:25:36.881Z,6.30
2019-03-11T17:28:05.509Z,6.20
2019-03-11T17:30:34.384Z,6.20
2019-03-11T17:33:02.946Z,6.20
2019-03-11T17:35:31.616Z,6.20
2019-03-11T17:38:00.240Z,6.10
2019-03-11T17:40:28.874Z,6.10
2019-03-11T17:42:57.461Z,6.20
2019-03-11T17:45:25.986Z,6.30
2019-03-11T17:47:54.552Z,6.30
2019-03-11T17:50:24.137Z,6.20
2019-03-11T17:52:52.772Z,6.10
2019-03-11T17:55:21.457Z,6.10
2019-03-11T17:57:50.356Z,6.20
2019-03-11T18:00:30.633Z,6.20
2019-03-11T18:02:59.195Z,6.10
2019-03-11T18:05:27.740Z,6.10
2019-03-11T18:07:56.297Z,6.20
2019-03-11T18:10:24.828Z,6.20
2019-03-11T18:12:53.409Z,6.10
2019-03-11T18:15:22.175Z,6.00
2019-03-11T18:17:50.766Z,6.00
2019-03-11T18:20:20.166Z,6.20
2019-03-11T18:22:49.130Z,6.20
2019-03-11T18:25:18.914Z,6.30
2019-03-11T18:27:47.911Z,6.20
2019-03-11T18:30:24.050Z,6.30
2019-03-11T18:32:52.796Z,6.40
2019-03-11T18:35:21.462Z,6.40
2019-03-11T18:37:50.120Z,6.70
2019-03-11T18:40:19.496Z,6.40
2019-03-11T18:42:48.184Z,6.20
2019-03-11T18:45:17.318Z,6.20
2019-03-11T18:47:45.778Z,6.20
2019-03-11T18:50:26.620Z,6.10
2019-03-11T18:52:55.979Z,6.20
2019-03-11T18:55:24.652Z,6.20
2019-03-11T18:57:53.173Z,6.30
2019-03-11T19:00:22.503Z,6.40
2019-03-11T19:02:51.128Z,6.40
2019-03-11T19:05:24.567Z,6.40
2019-03-11T19:07:55.120Z,6.40
2019-03-11T19:10:23.479Z,6.40
2019-03-11T19:12:52.040Z,6.50
2019-03-11T19:15:22.021Z,6.60
2019-03-11T19:17:50.803Z,6.70
2019-03-11T19:20:24.007Z,6.60
2019-03-11T19:22:53.080Z,6.60
2019-03-11T19:25:21.643Z,6.60
2019-03-11T19:27:50.276Z,6.60
2019-03-11T19:30:21.929Z,6.60
2019-03-11T19:32:50.560Z,6.60
2019-03-11T19:35:20.031Z,6.80
2019-03-11T19:37:48.568Z,6.80
2019-03-11T19:40:18.952Z,6.80
2019-03-11T19:42:47.845Z,6.70
2019-03-11T19:45:17.172Z,6.70
2019-03-11T19:47:45.870Z,6.70
2019-03-11T19:50:18.714Z,6.60
2019-03-11T19:52:58.001Z,6.50
2019-03-11T19:55:17.745Z,6.40
2019-03-11T19:57:46.348Z,6.50
2019-03-11T20:00:17.982Z,6.40
2019-03-11T20:02:46.892Z,6.50
2019-03-11T20:05:18.280Z,6.40
2019-03-11T20:07:46.831Z,6.50
2019-03-11T20:10:15.919Z,6.40
2019-03-11T20:12:44.584Z,6.50
2019-03-11T20:15:13.962Z,6.40
2019-03-11T20:17:42.627Z,6.40
2019-03-11T20:20:16.070Z,6.40
2019-03-11T20:22:44.765Z,6.30
2019-03-11T20:25:30.545Z,6.30
2019-03-11T20:27:59.249Z,6.30
2019-03-11T20:30:27.810Z,6.20
2019-03-11T20:32:56.522Z,6.30
2019-03-11T20:35:25.113Z,6.50
2019-03-11T20:37:53.725Z,6.50
2019-03-11T20:40:22.398Z,6.50
2019-03-11T20:42:51.030Z,6.50
2019-03-11T20:45:20.421Z,6.50
2019-03-11T20:47:49.079Z,6.50
2019-03-11T20:50:18.455Z,6.50
2019-03-11T20:52:47.092Z,6.40
2019-03-11T20:55:19.345Z,6.50
2019-03-11T20:57:48.048Z,6.50
2019-03-11T21:00:24.304Z,6.60
2019-03-11T21:02:52.978Z,6.50
2019-03-11T21:05:35.370Z,6.50
2019-03-11T21:08:03.049Z,6.50
2019-03-11T21:10:31.604Z,6.60
2019-03-11T21:13:00.215Z,6.60
2019-03-11T21:15:28.902Z,6.50
2019-03-11T21:17:57.468Z,6.60
2019-03-11T21:20:26.031Z,6.70
2019-03-11T21:22:54.608Z,6.60
2019-03-11T21:25:23.210Z,6.60
2019-03-11T21:27:51.721Z,6.60
2019-03-11T21:30:22.822Z,6.50
2019-03-11T21:32:51.411Z,6.50
2019-03-11T21:35:20.352Z,6.50
2019-03-11T21:37:49.000Z,6.40
2019-03-11T21:40:19.808Z,6.40
2019-03-11T21:42:48.325Z,6.30
2019-03-11T21:45:17.593Z,6.10
2019-03-11T21:47:46.588Z,6.00
2019-03-11T21:50:26.377Z,6.00
2019-03-11T21:52:55.062Z,6.00
2019-03-11T21:55:23.720Z,6.00
2019-03-11T21:57:52.336Z,6.00
2019-03-11T22:00:33.983Z,6.00
2019-03-11T22:02:55.092Z,6.00
2019-03-11T22:05:23.831Z,5.90
2019-03-11T22:07:52.456Z,6.10
2019-03-11T22:10:21.558Z,6.20
2019-03-11T22:12:50.169Z,6.30
2019-03-11T22:15:26.344Z,6.30
2019-03-11T22:17:54.953Z,6.30
2019-03-11T22:20:23.447Z,6.20
2019-03-11T22:22:52.057Z,6.10
2019-03-11T22:25:21.495Z,6.00
2019-03-11T22:27:50.146Z,5.80
2019-03-11T22:30:22.497Z,5.70
2019-03-11T22:32:51.312Z,5.70
2019-03-11T22:35:20.195Z,5.70
2019-03-11T22:37:48.997Z,5.60
2019-03-11T22:40:20.985Z,5.60
2019-03-11T22:42:49.522Z,5.50
2019-03-11T22:45:21.649Z,5.40
2019-03-11T22:47:53.037Z,5.40
2019-03-11T22:50:22.064Z,5.30
2019-03-11T22:52:50.621Z,5.20
2019-03-11T22:55:22.185Z,5.30
2019-03-11T22:57:50.722Z,5.40
2019-03-11T23:00:57.761Z,5.40
2019-03-11T23:03:26.792Z,5.30
2019-03-11T23:05:57.970Z,5.30
2019-03-11T23:08:26.021Z,5.40
2019-03-11T23:10:54.649Z,5.30
2019-03-11T23:13:23.202Z,5.20
2019-03-11T23:15:51.767Z,5.20
2019-03-11T23:18:20.301Z,5.20
2019-03-11T23:20:48.865Z,5.20
2019-03-11T23:23:17.405Z,5.20
2019-03-11T23:25:45.970Z,5.30
2019-03-11T23:28:14.513Z,5.20
2019-03-11T23:30:43.070Z,5.20
2019-03-11T23:33:11.945Z,5.30
2019-03-11T23:35:40.497Z,5.20
2019-03-11T23:38:09.046Z,5.30
2019-03-11T23:40:37.546Z,5.40
2019-03-11T23:43:06.150Z,5.30
2019-03-11T23:45:34.793Z,5.30
2019-03-11T23:48:03.565Z,5.20
2019-03-11T23:50:32.115Z,5.30
2019-03-11T23:53:00.680Z,5.30
2019-03-11T23:55:29.247Z,5.20
2019-03-11T23:57:57.784Z,5.20
